sensor_id;sensor_type;location;lat;lon;timestamp;temperature;humidity
12223;DHT22;6174;49.058;8.524;2023-03-14T05:02:33;11.70;99.90
12223;DHT22;6174;49.058;8.524;2023-03-14T05:05:00;11.80;99.90
12223;DHT22;6174;49.058;8.524;2023-03-14T05:07:27;11.90;99.90
12223;DHT22;6174;49.058;8.524;2023-03-14T05:09:54;11.90;99.90
12223;DHT22;6174;49.058;8.524;2023-03-14T05:12:21;11.90;99.90
12223;DHT22;6174;49.058;8.524;2023-03-14T05:14:48;11.90;99.90
12223;DHT22;6174;49.058;8.524;2023-03-14T05:17:14;11.90;99.90
12223;DHT22;6174;49.058;8.524;2023-03-14T05:19:43;11.90;99.90
12223;DHT22;6174;49.058;8.524;2023-03-14T05:22:10;11.90;99.90
12223;DHT22;6174;49.058;8.524;2023-03-14T05:24:37;12.00;99.90
12223;DHT22;6174;49.058;8.524;2023-03-14T05:27:05;12.00;99.90
12223;DHT22;6174;49.058;8.524;2023-03-14T05:29:32;12.00;99.90
12223;DHT22;6174;49.058;8.524;2023-03-14T05:31:59;12.00;99.90
12223;DHT22;6174;49.058;8.524;2023-03-14T05:34:26;12.00;99.90
12223;DHT22;6174;49.058;8.524;2023-03-14T05:36:54;12.00;99.90
12223;DHT22;6174;49.058;8.524;2023-03-14T05:39:21;12.00;99.90
12223;DHT22;6174;49.058;8.524;2023-03-14T05:41:48;12.00;99.90
12223;DHT22;6174;49.058;8.524;2023-03-14T05:44:15;12.00;99.90
12223;DHT22;6174;49.058;8.524;2023-03-14T05:46:42;12.00;99.90
12223;DHT22;6174;49.058;8.524;2023-03-14T05:49:09;12.00;99.90
12223;DHT22;6174;49.058;8.524;2023-03-14T05:51:36;11.90;99.90
12223;DHT22;6174;49.058;8.524;2023-03-14T05:54:04;11.90;99.90
12223;DHT22;6174;49.058;8.524;2023-03-14T05:56:31;11.90;99.90
12223;DHT22;6174;49.058;8.524;2023-03-14T05:58:58;11.90;99.90
12223;DHT22;6174;49.058;8.524;2023-03-14T06:01:27;11.90;99.90
12223;DHT22;6174;49.058;8.524;2023-03-14T06:03:54;11.90;99.90
12223;DHT22;6174;49.058;8.524;2023-03-14T06:06:21;11.80;99.90
12223;DHT22;6174;49.058;8.524;2023-03-14T06:08:47;11.80;99.90
12223;DHT22;6174;49.058;8.524;2023-03-14T06:11:16;11.80;99.90
12223;DHT22;6174;49.058;8.524;2023-03-14T06:13:43;11.70;99.90
12223;DHT22;6174;49.058;8.524;2023-03-14T06:16:10;11.70;99.90
12223;DHT22;6174;49.058;8.524;2023-03-14T06:18:37;11.70;99.90
12223;DHT22;6174;49.058;8.524;2023-03-14T06:21:04;11.70;99.90
12223;DHT22;6174;49.058;8.524;2023-03-14T06:23:31;11.70;99.90
12223;DHT22;6174;49.058;8.524;2023-03-14T06:25:57;11.70;99.90
12223;DHT22;6174;49.058;8.524;2023-03-14T06:28:26;11.80;99.90
12223;DHT22;6174;49.058;8.524;2023-03-14T06:30:52;11.70;99.90
12223;DHT22;6174;49.058;8.524;2023-03-14T06:33:19;11.70;99.90
12223;DHT22;6174;49.058;8.524;2023-03-14T06:35:46;11.80;99.90
12223;DHT22;6174;49.058;8.524;2023-03-14T06:38:12;11.80;99.90
12223;DHT22;6174;49.058;8.524;2023-03-14T06:40:39;11.80;99.90
12223;DHT22;6174;49.058;8.524;2023-03-14T06:43:06;11.80;99.90
12223;DHT22;6174;49.058;8.524;2023-03-14T06:45:34;11.80;99.90
12223;DHT22;6174;49.058;8.524;2023-03-14T06:48:01;11.80;99.90
12223;DHT22;6174;49.058;8.524;2023-03-14T06:50:27;11.80;99.90
12223;DHT22;6174;49.058;8.524;2023-03-14T06:52:54;11.90;99.90
12223;DHT22;6174;49.058;8.524;2023-03-14T06:55:21;11.90;99.90
12223;DHT22;6174;49.058;8.524;2023-03-14T06:57:48;11.80;99.90
12223;DHT22;6174;49.058;8.524;2023-03-14T07:00:15;11.80;99.90
12223;DHT22;6174;49.058;8.524;2023-03-14T07:02:43;11.80;99.90
12223;DHT22;6174;49.058;8.524;2023-03-14T07:05:10;11.90;99.90
12223;DHT22;6174;49.058;8.524;2023-03-14T07:07:37;11.90;99.90
12223;DHT22;6174;49.058;8.524;2023-03-14T07:10:04;11.90;99.90
12223;DHT22;6174;49.058;8.524;2023-03-14T07:12:34;11.90;99.90
12223;DHT22;6174;49.058;8.524;2023-03-14T07:15:00;11.90;99.90
12223;DHT22;6174;49.058;8.524;2023-03-14T07:17:27;12.00;99.90
12223;DHT22;6174;49.058;8.524;2023-03-14T07:19:55;12.00;99.90
12223;DHT22;6174;49.058;8.524;2023-03-14T07:22:22;12.00;99.90
12223;DHT22;6174;49.058;8.524;2023-03-14T07:24:49;12.00;99.90
12223;DHT22;6174;49.058;8.524;2023-03-14T07:27:15;12.00;99.90
12223;DHT22;6174;49.058;8.524;2023-03-14T07:29:42;12.00;99.90
12223;DHT22;6174;49.058;8.524;2023-03-14T07:32:09;12.10;99.90
12223;DHT22;6174;49.058;8.524;2023-03-14T07:34:40;12.10;99.90
12223;DHT22;6174;49.058;8.524;2023-03-14T07:37:08;12.20;99.90
12223;DHT22;6174;49.058;8.524;2023-03-14T07:39:34;12.20;99.90
12223;DHT22;6174;49.058;8.524;2023-03-14T07:42:01;12.20;99.90
12223;DHT22;6174;49.058;8.524;2023-03-14T07:44:28;12.30;99.90
12223;DHT22;6174;49.058;8.524;2023-03-14T07:46:54;12.30;99.90
12223;DHT22;6174;49.058;8.524;2023-03-14T07:49:21;12.30;99.90
12223;DHT22;6174;49.058;8.524;2023-03-14T07:51:48;12.40;99.90
12223;DHT22;6174;49.058;8.524;2023-03-14T07:54:17;12.40;99.90
12223;DHT22;6174;49.058;8.524;2023-03-14T07:56:43;12.50;99.90
12223;DHT22;6174;49.058;8.524;2023-03-14T07:59:10;12.60;99.90
12223;DHT22;6174;49.058;8.524;2023-03-14T08:01:37;12.80;99.90
12223;DHT22;6174;49.058;8.524;2023-03-14T08:04:04;12.90;99.90
12223;DHT22;6174;49.058;8.524;2023-03-14T08:06:31;13.00;99.90
12223;DHT22;6174;49.058;8.524;2023-03-14T08:08:58;13.00;99.90
12223;DHT22;6174;49.058;8.524;2023-03-14T08:11:26;13.00;99.90
12223;DHT22;6174;49.058;8.524;2023-03-14T08:13:53;12.90;99.90
12223;DHT22;6174;49.058;8.524;2023-03-14T08:16:20;12.80;99.90
12223;DHT22;6174;49.058;8.524;2023-03-14T08:18:46;12.70;99.90
12223;DHT22;6174;49.058;8.524;2023-03-14T08:21:13;12.70;99.90
12223;DHT22;6174;49.058;8.524;2023-03-14T08:23:40;12.70;99.90
12223;DHT22;6174;49.058;8.524;2023-03-14T08:26:07;12.70;99.90
12223;DHT22;6174;49.058;8.524;2023-03-14T08:28:35;12.50;99.90
12223;DHT22;6174;49.058;8.524;2023-03-14T08:31:02;12.40;99.90
12223;DHT22;6174;49.058;8.524;2023-03-14T08:33:29;12.30;99.90
12223;DHT22;6174;49.058;8.524;2023-03-14T08:35:57;12.30;99.90
12223;DHT22;6174;49.058;8.524;2023-03-14T08:38:25;12.20;99.90
12223;DHT22;6174;49.058;8.524;2023-03-14T08:40:56;12.20;99.90
12223;DHT22;6174;49.058;8.524;2023-03-14T08:43:23;12.20;99.90
12223;DHT22;6174;49.058;8.524;2023-03-14T08:45:51;12.20;99.90
12223;DHT22;6174;49.058;8.524;2023-03-14T08:48:18;12.20;99.90
12223;DHT22;6174;49.058;8.524;2023-03-14T08:50:45;12.30;99.90
12223;DHT22;6174;49.058;8.524;2023-03-14T08:53:12;12.30;99.90
12223;DHT22;6174;49.058;8.524;2023-03-14T08:55:38;12.40;99.90
12223;DHT22;6174;49.058;8.524;2023-03-14T08:58:05;12.40;99.90
12223;DHT22;6174;49.058;8.524;2023-03-14T09:00:32;12.50;99.90
12223;DHT22;6174;49.058;8.524;2023-03-14T09:03:00;12.60;99.90
12223;DHT22;6174;49.058;8.524;2023-03-14T09:05:27;12.70;99.90
12223;DHT22;6174;49.058;8.524;2023-03-14T09:07:54;12.70;99.90
12223;DHT22;6174;49.058;8.524;2023-03-14T09:10:20;12.70;99.90
12223;DHT22;6174;49.058;8.524;2023-03-14T09:12:47;12.60;99.90
12223;DHT22;6174;49.058;8.524;2023-03-14T09:15:14;12.60;99.90
12223;DHT22;6174;49.058;8.524;2023-03-14T09:17:42;12.60;99.90
12223;DHT22;6174;49.058;8.524;2023-03-14T09:20:11;12.60;99.90
12223;DHT22;6174;49.058;8.524;2023-03-14T09:22:39;12.60;99.90
12223;DHT22;6174;49.058;8.524;2023-03-14T09:25:07;12.60;99.90
12223;DHT22;6174;49.058;8.524;2023-03-14T09:27:34;12.70;99.90
12223;DHT22;6174;49.058;8.524;2023-03-14T09:30:01;12.70;99.90
12223;DHT22;6174;49.058;8.524;2023-03-14T09:32:28;12.80;99.90
12223;DHT22;6174;49.058;8.524;2023-03-14T09:34:54;12.80;99.90
12223;DHT22;6174;49.058;8.524;2023-03-14T09:37:23;12.80;99.90
12223;DHT22;6174;49.058;8.524;2023-03-14T09:39:49;12.80;99.90
12223;DHT22;6174;49.058;8.524;2023-03-14T09:42:18;12.80;99.90
12223;DHT22;6174;49.058;8.524;2023-03-14T09:44:53;12.70;99.90
12223;DHT22;6174;49.058;8.524;2023-03-14T09:47:22;12.80;99.90
12223;DHT22;6174;49.058;8.524;2023-03-14T09:49:49;12.80;99.90
12223;DHT22;6174;49.058;8.524;2023-03-14T09:52:19;12.80;99.90
12223;DHT22;6174;49.058;8.524;2023-03-14T09:54:50;12.80;99.90
12223;DHT22;6174;49.058;8.524;2023-03-14T09:57:20;12.70;99.90
12223;DHT22;6174;49.058;8.524;2023-03-14T09:59:49;12.70;99.90
12223;DHT22;6174;49.058;8.524;2023-03-14T10:02:19;12.70;99.90
12223;DHT22;6174;49.058;8.524;2023-03-14T10:04:47;12.60;99.90
12223;DHT22;6174;49.058;8.524;2023-03-14T10:07:16;12.50;99.90
12223;DHT22;6174;49.058;8.524;2023-03-14T10:09:46;12.50;99.90
12223;DHT22;6174;49.058;8.524;2023-03-14T10:12:16;12.60;99.90
12223;DHT22;6174;49.058;8.524;2023-03-14T10:14:47;12.70;99.90
12223;DHT22;6174;49.058;8.524;2023-03-14T10:17:16;12.60;99.90
12223;DHT22;6174;49.058;8.524;2023-03-14T10:19:52;12.60;99.90
12223;DHT22;6174;49.058;8.524;2023-03-14T10:22:19;12.40;99.90
12223;DHT22;6174;49.058;8.524;2023-03-14T10:24:51;12.30;99.90
12223;DHT22;6174;49.058;8.524;2023-03-14T10:27:22;12.30;99.90
12223;DHT22;6174;49.058;8.524;2023-03-14T10:29:53;12.10;99.90
12223;DHT22;6174;49.058;8.524;2023-03-14T10:32:22;11.90;99.90
12223;DHT22;6174;49.058;8.524;2023-03-14T10:35:17;11.90;99.90
12223;DHT22;6174;49.058;8.524;2023-03-14T10:37:51;11.90;99.90
12223;DHT22;6174;49.058;8.524;2023-03-14T10:40:22;11.80;99.90
12223;DHT22;6174;49.058;8.524;2023-03-14T10:42:51;11.70;99.90
12223;DHT22;6174;49.058;8.524;2023-03-14T10:45:39;11.70;99.90
12223;DHT22;6174;49.058;8.524;2023-03-14T10:48:19;11.60;99.90
12223;DHT22;6174;49.058;8.524;2023-03-14T10:50:54;11.50;99.90
12223;DHT22;6174;49.058;8.524;2023-03-14T10:53:21;11.50;99.90
12223;DHT22;6174;49.058;8.524;2023-03-14T10:55:48;11.40;99.90
12223;DHT22;6174;49.058;8.524;2023-03-14T10:58:22;11.40;99.90
12223;DHT22;6174;49.058;8.524;2023-03-14T11:00:53;11.40;99.90
12223;DHT22;6174;49.058;8.524;2023-03-14T11:03:21;11.30;99.90
12223;DHT22;6174;49.058;8.524;2023-03-14T11:05:53;11.20;99.90
12223;DHT22;6174;49.058;8.524;2023-03-14T11:08:27;11.10;99.90
12223;DHT22;6174;49.058;8.524;2023-03-14T11:11:07;11.10;99.90
12223;DHT22;6174;49.058;8.524;2023-03-14T11:13:40;11.10;99.90
12223;DHT22;6174;49.058;8.524;2023-03-14T11:16:16;11.10;99.90
12223;DHT22;6174;49.058;8.524;2023-03-14T11:19:17;11.00;99.90
12223;DHT22;6174;49.058;8.524;2023-03-14T11:21:51;11.00;99.90
12223;DHT22;6174;49.058;8.524;2023-03-14T11:24:41;11.00;99.90
12223;DHT22;6174;49.058;8.524;2023-03-14T11:27:17;10.90;99.90
12223;DHT22;6174;49.058;8.524;2023-03-14T11:29:51;10.70;99.90
12223;DHT22;6174;49.058;8.524;2023-03-14T11:32:27;10.60;99.90
12223;DHT22;6174;49.058;8.524;2023-03-14T11:34:56;10.60;99.90
12223;DHT22;6174;49.058;8.524;2023-03-14T11:37:27;10.70;99.90
12223;DHT22;6174;49.058;8.524;2023-03-14T11:40:00;10.70;99.90
12223;DHT22;6174;49.058;8.524;2023-03-14T11:42:29;10.80;99.90
12223;DHT22;6174;49.058;8.524;2023-03-14T11:45:00;10.80;99.90
12223;DHT22;6174;49.058;8.524;2023-03-14T11:47:29;10.70;99.90
12223;DHT22;6174;49.058;8.524;2023-03-14T11:50:00;10.80;99.90
12223;DHT22;6174;49.058;8.524;2023-03-14T11:52:32;10.70;99.90
12223;DHT22;6174;49.058;8.524;2023-03-14T11:55:04;10.50;99.90
12223;DHT22;6174;49.058;8.524;2023-03-14T11:57:31;10.30;99.90
12223;DHT22;6174;49.058;8.524;2023-03-14T12:00:02;10.20;99.90
12223;DHT22;6174;49.058;8.524;2023-03-14T12:02:35;10.10;99.90
12223;DHT22;6174;49.058;8.524;2023-03-14T12:11:14;9.70;99.90
12223;DHT22;6174;49.058;8.524;2023-03-14T12:13:46;9.70;99.90
12223;DHT22;6174;49.058;8.524;2023-03-14T12:16:27;9.70;99.90
12223;DHT22;6174;49.058;8.524;2023-03-14T12:18:56;9.70;99.90
12223;DHT22;6174;49.058;8.524;2023-03-14T12:21:42;9.70;99.90
12223;DHT22;6174;49.058;8.524;2023-03-14T12:24:17;9.70;99.90
12223;DHT22;6174;49.058;8.524;2023-03-14T12:26:51;9.70;99.90
12223;DHT22;6174;49.058;8.524;2023-03-14T12:29:18;9.70;99.90
12223;DHT22;6174;49.058;8.524;2023-03-14T12:31:48;9.70;99.90
12223;DHT22;6174;49.058;8.524;2023-03-14T12:34:30;9.80;99.90
12223;DHT22;6174;49.058;8.524;2023-03-14T12:37:14;9.80;99.90
12223;DHT22;6174;49.058;8.524;2023-03-14T12:39:56;9.80;99.90
12223;DHT22;6174;49.058;8.524;2023-03-14T12:42:38;9.90;99.90
12223;DHT22;6174;49.058;8.524;2023-03-14T12:45:25;10.00;99.90
12223;DHT22;6174;49.058;8.524;2023-03-14T12:47:55;10.10;99.90
12223;DHT22;6174;49.058;8.524;2023-03-14T12:50:32;10.30;99.90
12223;DHT22;6174;49.058;8.524;2023-03-14T12:56:09;10.80;99.90
12223;DHT22;6174;49.058;8.524;2023-03-14T12:58:39;11.20;99.90
12223;DHT22;6174;49.058;8.524;2023-03-14T13:01:16;11.50;99.70
12223;DHT22;6174;49.058;8.524;2023-03-14T13:03:47;11.50;96.60
12223;DHT22;6174;49.058;8.524;2023-03-14T13:06:50;11.60;95.30
12223;DHT22;6174;49.058;8.524;2023-03-14T13:09:50;11.50;93.30
12223;DHT22;6174;49.058;8.524;2023-03-14T13:12:23;11.50;91.10
12223;DHT22;6174;49.058;8.524;2023-03-14T13:14:53;11.40;91.30
12223;DHT22;6174;49.058;8.524;2023-03-14T13:17:24;11.40;90.60
12223;DHT22;6174;49.058;8.524;2023-03-14T13:19:56;11.40;89.80
12223;DHT22;6174;49.058;8.524;2023-03-14T13:22:25;11.40;88.00
12223;DHT22;6174;49.058;8.524;2023-03-14T13:24:59;11.30;87.80
12223;DHT22;6174;49.058;8.524;2023-03-14T13:27:27;11.30;87.00
12223;DHT22;6174;49.058;8.524;2023-03-14T13:29:56;11.20;84.40
12223;DHT22;6174;49.058;8.524;2023-03-14T13:32:27;10.90;84.50
12223;DHT22;6174;49.058;8.524;2023-03-14T13:34:57;10.80;85.20
12223;DHT22;6174;49.058;8.524;2023-03-14T13:37:26;10.60;84.60
12223;DHT22;6174;49.058;8.524;2023-03-14T13:39:54;10.50;85.90
12223;DHT22;6174;49.058;8.524;2023-03-14T13:42:24;10.50;86.30
12223;DHT22;6174;49.058;8.524;2023-03-14T13:44:53;10.50;86.00
12223;DHT22;6174;49.058;8.524;2023-03-14T13:47:23;10.50;86.30
12223;DHT22;6174;49.058;8.524;2023-03-14T13:49:50;10.50;84.90
12223;DHT22;6174;49.058;8.524;2023-03-14T13:52:28;10.60;84.50
12223;DHT22;6174;49.058;8.524;2023-03-14T13:54:56;10.50;83.00
12223;DHT22;6174;49.058;8.524;2023-03-14T13:57:23;10.40;81.50
12223;DHT22;6174;49.058;8.524;2023-03-14T14:00:01;10.40;82.60
12223;DHT22;6174;49.058;8.524;2023-03-14T14:02:32;10.40;81.30
12223;DHT22;6174;49.058;8.524;2023-03-14T14:05:00;10.40;81.50
12223;DHT22;6174;49.058;8.524;2023-03-14T14:07:29;10.40;80.20
12223;DHT22;6174;49.058;8.524;2023-03-14T14:09:57;10.40;79.00
12223;DHT22;6174;49.058;8.524;2023-03-14T14:12:28;10.40;78.90
12223;DHT22;6174;49.058;8.524;2023-03-14T14:14:58;10.30;79.10
12223;DHT22;6174;49.058;8.524;2023-03-14T14:17:28;10.40;78.70
12223;DHT22;6174;49.058;8.524;2023-03-14T14:19:56;10.40;79.00
12223;DHT22;6174;49.058;8.524;2023-03-14T14:22:24;10.40;77.80
12223;DHT22;6174;49.058;8.524;2023-03-14T14:24:53;10.40;78.50
12223;DHT22;6174;49.058;8.524;2023-03-14T14:27:24;10.40;77.80
12223;DHT22;6174;49.058;8.524;2023-03-14T14:29:59;10.40;77.00
12223;DHT22;6174;49.058;8.524;2023-03-14T14:32:26;10.40;77.50
12223;DHT22;6174;49.058;8.524;2023-03-14T14:34:58;10.40;77.10
12223;DHT22;6174;49.058;8.524;2023-03-14T14:37:26;10.50;76.80
12223;DHT22;6174;49.058;8.524;2023-03-14T14:39:57;10.60;78.30
12223;DHT22;6174;49.058;8.524;2023-03-14T14:42:27;10.70;75.10
12223;DHT22;6174;49.058;8.524;2023-03-14T14:44:56;10.90;75.00
12223;DHT22;6174;49.058;8.524;2023-03-14T14:47:25;10.90;76.10
12223;DHT22;6174;49.058;8.524;2023-03-14T14:49:54;11.00;74.70
12223;DHT22;6174;49.058;8.524;2023-03-14T14:52:30;11.10;77.10
12223;DHT22;6174;49.058;8.524;2023-03-14T14:55:00;11.30;76.30
12223;DHT22;6174;49.058;8.524;2023-03-14T14:57:30;11.30;74.20
12223;DHT22;6174;49.058;8.524;2023-03-14T15:00:03;11.30;74.80
12223;DHT22;6174;49.058;8.524;2023-03-14T15:02:36;11.30;74.30
12223;DHT22;6174;49.058;8.524;2023-03-14T15:05:08;11.20;75.20
12223;DHT22;6174;49.058;8.524;2023-03-14T15:07:38;11.20;75.20
12223;DHT22;6174;49.058;8.524;2023-03-14T15:10:09;11.00;76.70
12223;DHT22;6174;49.058;8.524;2023-03-14T15:12:36;10.90;75.30
12223;DHT22;6174;49.058;8.524;2023-03-14T15:15:03;10.80;77.40
12223;DHT22;6174;49.058;8.524;2023-03-14T15:17:31;10.80;77.80
12223;DHT22;6174;49.058;8.524;2023-03-14T15:19:58;10.70;78.40
12223;DHT22;6174;49.058;8.524;2023-03-14T15:22:25;10.60;77.80
12223;DHT22;6174;49.058;8.524;2023-03-14T15:24:52;10.50;78.00
12223;DHT22;6174;49.058;8.524;2023-03-14T15:27:20;10.50;79.40
12223;DHT22;6174;49.058;8.524;2023-03-14T15:29:46;10.70;79.30
12223;DHT22;6174;49.058;8.524;2023-03-14T15:32:15;10.80;78.70
12223;DHT22;6174;49.058;8.524;2023-03-14T15:34:43;11.00;78.70
12223;DHT22;6174;49.058;8.524;2023-03-14T15:37:11;10.90;78.10
12223;DHT22;6174;49.058;8.524;2023-03-14T15:39:39;10.90;79.70
12223;DHT22;6174;49.058;8.524;2023-03-14T15:42:06;10.90;78.80
12223;DHT22;6174;49.058;8.524;2023-03-14T15:44:34;10.70;80.20
12223;DHT22;6174;49.058;8.524;2023-03-14T15:47:01;10.70;80.80
12223;DHT22;6174;49.058;8.524;2023-03-14T15:49:27;10.60;80.90
12223;DHT22;6174;49.058;8.524;2023-03-14T15:51:54;10.50;80.70
12223;DHT22;6174;49.058;8.524;2023-03-14T15:54:21;10.40;82.20
12223;DHT22;6174;49.058;8.524;2023-03-14T15:56:48;10.40;82.70
12223;DHT22;6174;49.058;8.524;2023-03-14T15:59:14;10.30;82.80
12223;DHT22;6174;49.058;8.524;2023-03-14T16:01:42;10.30;83.70
12223;DHT22;6174;49.058;8.524;2023-03-14T16:04:09;10.30;83.40
12223;DHT22;6174;49.058;8.524;2023-03-14T16:06:36;10.20;84.10
12223;DHT22;6174;49.058;8.524;2023-03-14T16:09:03;10.20;84.10
12223;DHT22;6174;49.058;8.524;2023-03-14T16:11:29;10.20;84.30
12223;DHT22;6174;49.058;8.524;2023-03-14T16:13:56;10.20;85.90
12223;DHT22;6174;49.058;8.524;2023-03-14T16:16:23;10.20;85.20
12223;DHT22;6174;49.058;8.524;2023-03-14T16:18:51;10.20;84.00
12223;DHT22;6174;49.058;8.524;2023-03-14T16:21:19;10.20;85.10
12223;DHT22;6174;49.058;8.524;2023-03-14T16:23:46;10.10;86.00
12223;DHT22;6174;49.058;8.524;2023-03-14T16:26:14;10.00;85.90
12223;DHT22;6174;49.058;8.524;2023-03-14T16:29:12;10.00;86.50
12223;DHT22;6174;49.058;8.524;2023-03-14T16:31:39;9.90;87.60
12223;DHT22;6174;49.058;8.524;2023-03-14T16:34:27;9.90;88.80
12223;DHT22;6174;49.058;8.524;2023-03-14T16:37:12;9.60;88.00
12223;DHT22;6174;49.058;8.524;2023-03-14T16:42:50;9.50;90.70
12223;DHT22;6174;49.058;8.524;2023-03-14T16:45:30;9.50;91.00
12223;DHT22;6174;49.058;8.524;2023-03-14T16:47:57;9.40;89.90
12223;DHT22;6174;49.058;8.524;2023-03-14T16:50:25;9.40;89.80
12223;DHT22;6174;49.058;8.524;2023-03-14T16:52:52;9.30;90.10
12223;DHT22;6174;49.058;8.524;2023-03-14T16:55:20;9.40;90.60
12223;DHT22;6174;49.058;8.524;2023-03-14T16:57:46;9.30;90.70
12223;DHT22;6174;49.058;8.524;2023-03-14T17:00:14;9.30;91.10
12223;DHT22;6174;49.058;8.524;2023-03-14T17:02:41;9.20;90.80
12223;DHT22;6174;49.058;8.524;2023-03-14T17:05:08;9.20;91.50
12223;DHT22;6174;49.058;8.524;2023-03-14T17:07:36;9.20;91.70
12223;DHT22;6174;49.058;8.524;2023-03-14T17:10:03;9.10;91.90
12223;DHT22;6174;49.058;8.524;2023-03-14T17:12:29;9.10;92.30
12223;DHT22;6174;49.058;8.524;2023-03-14T17:17:29;9.10;92.20
12223;DHT22;6174;49.058;8.524;2023-03-14T17:19:56;9.10;92.50
12223;DHT22;6174;49.058;8.524;2023-03-14T17:22:22;9.00;92.20
12223;DHT22;6174;49.058;8.524;2023-03-14T17:24:51;9.00;92.80
12223;DHT22;6174;49.058;8.524;2023-03-14T17:27:18;8.90;93.30
12223;DHT22;6174;49.058;8.524;2023-03-14T17:29:45;8.90;93.50
12223;DHT22;6174;49.058;8.524;2023-03-14T17:32:12;8.80;93.90
12223;DHT22;6174;49.058;8.524;2023-03-14T17:34:39;8.80;94.30
12223;DHT22;6174;49.058;8.524;2023-03-14T17:37:06;8.80;94.60
12223;DHT22;6174;49.058;8.524;2023-03-14T17:39:32;8.80;94.90
12223;DHT22;6174;49.058;8.524;2023-03-14T17:42:01;8.80;95.30
12223;DHT22;6174;49.058;8.524;2023-03-14T17:44:28;8.80;95.70
12223;DHT22;6174;49.058;8.524;2023-03-14T17:46:56;8.80;96.20
12223;DHT22;6174;49.058;8.524;2023-03-14T17:49:23;8.60;96.80
12223;DHT22;6174;49.058;8.524;2023-03-14T17:51:50;8.50;97.70
12223;DHT22;6174;49.058;8.524;2023-03-14T17:54:17;8.50;98.00
12223;DHT22;6174;49.058;8.524;2023-03-14T17:56:43;8.40;98.50
12223;DHT22;6174;49.058;8.524;2023-03-14T17:59:13;8.40;99.20
12223;DHT22;6174;49.058;8.524;2023-03-14T18:01:40;8.30;99.80
12223;DHT22;6174;49.058;8.524;2023-03-14T18:04:07;8.30;99.90
12223;DHT22;6174;49.058;8.524;2023-03-14T18:06:34;8.20;99.90
12223;DHT22;6174;49.058;8.524;2023-03-14T18:09:01;8.10;99.90
12223;DHT22;6174;49.058;8.524;2023-03-14T18:11:29;8.10;99.90
12223;DHT22;6174;49.058;8.524;2023-03-14T18:13:56;8.10;99.90
12223;DHT22;6174;49.058;8.524;2023-03-14T18:16:27;8.10;99.90
12223;DHT22;6174;49.058;8.524;2023-03-14T18:18:54;8.10;99.90
12223;DHT22;6174;49.058;8.524;2023-03-14T18:21:22;8.10;99.90
12223;DHT22;6174;49.058;8.524;2023-03-14T18:23:49;8.10;99.90
12223;DHT22;6174;49.058;8.524;2023-03-14T18:26:16;8.00;99.90
12223;DHT22;6174;49.058;8.524;2023-03-14T18:28:43;8.00;99.90
12223;DHT22;6174;49.058;8.524;2023-03-14T18:31:12;7.90;99.90
12223;DHT22;6174;49.058;8.524;2023-03-14T18:33:41;8.00;99.90
12223;DHT22;6174;49.058;8.524;2023-03-14T18:36:10;8.00;99.90
12223;DHT22;6174;49.058;8.524;2023-03-14T18:38:37;8.00;99.90
12223;DHT22;6174;49.058;8.524;2023-03-14T18:41:08;8.00;99.90
12223;DHT22;6174;49.058;8.524;2023-03-14T18:43:36;8.00;99.90
12223;DHT22;6174;49.058;8.524;2023-03-14T18:46:02;7.90;99.90
12223;DHT22;6174;49.058;8.524;2023-03-14T18:48:30;7.90;99.90
12223;DHT22;6174;49.058;8.524;2023-03-14T18:50:58;7.80;99.90
12223;DHT22;6174;49.058;8.524;2023-03-14T18:53:25;7.80;99.90
12223;DHT22;6174;49.058;8.524;2023-03-14T18:55:56;7.80;99.90
12223;DHT22;6174;49.058;8.524;2023-03-14T18:58:23;7.70;99.90
12223;DHT22;6174;49.058;8.524;2023-03-14T19:00:54;7.70;99.90
12223;DHT22;6174;49.058;8.524;2023-03-14T19:03:21;7.70;99.90
12223;DHT22;6174;49.058;8.524;2023-03-14T19:05:50;7.60;99.90
12223;DHT22;6174;49.058;8.524;2023-03-14T19:08:18;7.60;99.90
12223;DHT22;6174;49.058;8.524;2023-03-14T19:10:48;7.60;99.90
12223;DHT22;6174;49.058;8.524;2023-03-14T19:13:15;7.60;99.90
12223;DHT22;6174;49.058;8.524;2023-03-14T19:15:42;7.60;99.90
12223;DHT22;6174;49.058;8.524;2023-03-14T19:18:09;7.50;99.90
12223;DHT22;6174;49.058;8.524;2023-03-14T19:20:35;7.40;99.90
12223;DHT22;6174;49.058;8.524;2023-03-14T19:23:02;7.40;99.90
12223;DHT22;6174;49.058;8.524;2023-03-14T19:25:30;7.50;99.90
12223;DHT22;6174;49.058;8.524;2023-03-14T19:27:57;7.50;99.90
12223;DHT22;6174;49.058;8.524;2023-03-14T19:30:24;7.40;99.90
12223;DHT22;6174;49.058;8.524;2023-03-14T19:32:51;7.50;99.90
12223;DHT22;6174;49.058;8.524;2023-03-14T19:35:19;7.50;99.90
12223;DHT22;6174;49.058;8.524;2023-03-14T19:37:45;7.60;99.90
12223;DHT22;6174;49.058;8.524;2023-03-14T19:40:12;7.50;99.90
12223;DHT22;6174;49.058;8.524;2023-03-14T19:42:41;7.40;99.90
12223;DHT22;6174;49.058;8.524;2023-03-14T19:45:09;7.40;99.90
12223;DHT22;6174;49.058;8.524;2023-03-14T19:47:36;7.40;99.90
12223;DHT22;6174;49.058;8.524;2023-03-14T19:50:03;7.30;99.90
12223;DHT22;6174;49.058;8.524;2023-03-14T19:52:30;7.30;99.90
12223;DHT22;6174;49.058;8.524;2023-03-14T19:54:56;7.40;99.90
12223;DHT22;6174;49.058;8.524;2023-03-14T19:57:23;7.40;99.90
12223;DHT22;6174;49.058;8.524;2023-03-14T19:59:51;7.30;99.90
12223;DHT22;6174;49.058;8.524;2023-03-14T20:02:19;7.40;99.90
12223;DHT22;6174;49.058;8.524;2023-03-14T20:04:46;7.40;99.90
12223;DHT22;6174;49.058;8.524;2023-03-14T20:07:13;7.40;99.90
12223;DHT22;6174;49.058;8.524;2023-03-14T20:09:40;7.40;99.90
12223;DHT22;6174;49.058;8.524;2023-03-14T20:12:07;7.40;99.90
12223;DHT22;6174;49.058;8.524;2023-03-14T20:14:34;7.40;99.90
12223;DHT22;6174;49.058;8.524;2023-03-14T20:17:02;7.40;99.90
12223;DHT22;6174;49.058;8.524;2023-03-14T20:19:28;7.40;99.90
12223;DHT22;6174;49.058;8.524;2023-03-14T20:21:55;7.20;99.90
12223;DHT22;6174;49.058;8.524;2023-03-14T20:24:22;7.20;99.90
12223;DHT22;6174;49.058;8.524;2023-03-14T20:26:50;7.10;99.90
12223;DHT22;6174;49.058;8.524;2023-03-14T20:29:17;7.00;99.90
12223;DHT22;6174;49.058;8.524;2023-03-14T20:31:44;7.00;99.90
12223;DHT22;6174;49.058;8.524;2023-03-14T20:34:12;6.90;99.90
12223;DHT22;6174;49.058;8.524;2023-03-14T20:36:39;6.90;99.90
12223;DHT22;6174;49.058;8.524;2023-03-14T20:39:06;6.90;99.90
12223;DHT22;6174;49.058;8.524;2023-03-14T20:41:32;7.00;99.90
12223;DHT22;6174;49.058;8.524;2023-03-14T20:44:06;7.10;99.90
12223;DHT22;6174;49.058;8.524;2023-03-14T20:46:33;7.00;99.90
12223;DHT22;6174;49.058;8.524;2023-03-14T20:49:00;7.00;99.90
12223;DHT22;6174;49.058;8.524;2023-03-14T20:51:28;7.00;99.90
12223;DHT22;6174;49.058;8.524;2023-03-14T20:53:55;7.00;99.90
12223;DHT22;6174;49.058;8.524;2023-03-14T20:56:22;7.10;99.90
12223;DHT22;6174;49.058;8.524;2023-03-14T20:58:48;7.00;99.90
12223;DHT22;6174;49.058;8.524;2023-03-14T21:01:15;7.00;99.90
12223;DHT22;6174;49.058;8.524;2023-03-14T21:03:42;7.00;99.90
12223;DHT22;6174;49.058;8.524;2023-03-14T21:06:09;7.00;99.90
12223;DHT22;6174;49.058;8.524;2023-03-14T21:08:38;6.90;99.90
12223;DHT22;6174;49.058;8.524;2023-03-14T21:11:05;6.70;99.90
12223;DHT22;6174;49.058;8.524;2023-03-14T21:13:32;6.20;99.90
12223;DHT22;6174;49.058;8.524;2023-03-14T21:15:59;5.50;99.90
12223;DHT22;6174;49.058;8.524;2023-03-14T21:18:26;4.80;99.90
12223;DHT22;6174;49.058;8.524;2023-03-14T21:20:54;4.30;99.90